sensor_id;sensor_type;location;lat;lon;timestamp;P1;durP1;ratioP1;P2;durP2;ratioP2
25123;SDS011;13104;51.030;4.686;2023-12-22T00:01:31;10.02;;;1.02;;
25123;SDS011;13104;51.030;4.686;2023-12-22T00:03:58;3.08;;;1.33;;
25123;SDS011;13104;51.030;4.686;2023-12-22T00:06:24;5.95;;;1.40;;
25123;SDS011;13104;51.030;4.686;2023-12-22T00:08:50;3.53;;;1.20;;
25123;SDS011;13104;51.030;4.686;2023-12-22T00:11:16;14.95;;;1.33;;
25123;SDS011;13104;51.030;4.686;2023-12-22T00:13:42;1.77;;;1.17;;
25123;SDS011;13104;51.030;4.686;2023-12-22T00:16:08;7.95;;;1.40;;
25123;SDS011;13104;51.030;4.686;2023-12-22T00:18:35;1.42;;;0.95;;
25123;SDS011;13104;51.030;4.686;2023-12-22T00:21:02;5.28;;;0.80;;
25123;SDS011;13104;51.030;4.686;2023-12-22T00:23:28;1.67;;;0.82;;
25123;SDS011;13104;51.030;4.686;2023-12-22T00:25:54;9.00;;;0.90;;
25123;SDS011;13104;51.030;4.686;2023-12-22T00:28:20;0.98;;;0.88;;
25123;SDS011;13104;51.030;4.686;2023-12-22T00:30:46;0.70;;;0.70;;
25123;SDS011;13104;51.030;4.686;2023-12-22T00:33:12;2.22;;;1.08;;
25123;SDS011;13104;51.030;4.686;2023-12-22T00:35:38;4.78;;;0.70;;
25123;SDS011;13104;51.030;4.686;2023-12-22T00:38:04;8.80;;;0.80;;
25123;SDS011;13104;51.030;4.686;2023-12-22T00:40:30;5.35;;;0.85;;
25123;SDS011;13104;51.030;4.686;2023-12-22T00:42:56;0.47;;;0.47;;
25123;SDS011;13104;51.030;4.686;2023-12-22T00:45:22;1.05;;;1.00;;
25123;SDS011;13104;51.030;4.686;2023-12-22T00:47:48;0.70;;;0.68;;
25123;SDS011;13104;51.030;4.686;2023-12-22T00:50:14;2.28;;;1.17;;
25123;SDS011;13104;51.030;4.686;2023-12-22T00:52:40;5.75;;;0.77;;
25123;SDS011;13104;51.030;4.686;2023-12-22T00:55:06;1.42;;;0.70;;
25123;SDS011;13104;51.030;4.686;2023-12-22T00:57:32;0.45;;;0.45;;
25123;SDS011;13104;51.030;4.686;2023-12-22T00:59:59;3.25;;;0.80;;
25123;SDS011;13104;51.030;4.686;2023-12-22T01:02:25;0.60;;;0.60;;
25123;SDS011;13104;51.030;4.686;2023-12-22T01:04:51;1.48;;;0.90;;
25123;SDS011;13104;51.030;4.686;2023-12-22T01:07:17;0.98;;;0.90;;
25123;SDS011;13104;51.030;4.686;2023-12-22T01:09:43;5.70;;;0.90;;
25123;SDS011;13104;51.030;4.686;2023-12-22T01:12:10;8.85;;;0.70;;
25123;SDS011;13104;51.030;4.686;2023-12-22T01:14:36;8.57;;;1.35;;
25123;SDS011;13104;51.030;4.686;2023-12-22T01:17:02;6.93;;;1.40;;
25123;SDS011;13104;51.030;4.686;2023-12-22T01:19:28;3.25;;;1.15;;
25123;SDS011;13104;51.030;4.686;2023-12-22T01:21:54;2.85;;;0.80;;
25123;SDS011;13104;51.030;4.686;2023-12-22T01:24:20;0.73;;;0.68;;
25123;SDS011;13104;51.030;4.686;2023-12-22T01:26:46;7.05;;;1.15;;
25123;SDS011;13104;51.030;4.686;2023-12-22T01:29:12;1.67;;;1.00;;
25123;SDS011;13104;51.030;4.686;2023-12-22T01:31:38;1.25;;;0.90;;
25123;SDS011;13104;51.030;4.686;2023-12-22T01:34:04;3.83;;;0.88;;
25123;SDS011;13104;51.030;4.686;2023-12-22T01:36:30;1.35;;;0.70;;
25123;SDS011;13104;51.030;4.686;2023-12-22T01:38:56;5.22;;;0.85;;
25123;SDS011;13104;51.030;4.686;2023-12-22T01:41:22;0.80;;;0.80;;
25123;SDS011;13104;51.030;4.686;2023-12-22T01:43:48;1.77;;;1.02;;
25123;SDS011;13104;51.030;4.686;2023-12-22T01:46:14;3.25;;;1.00;;
25123;SDS011;13104;51.030;4.686;2023-12-22T01:48:40;1.60;;;0.70;;
25123;SDS011;13104;51.030;4.686;2023-12-22T01:51:06;5.22;;;1.58;;
25123;SDS011;13104;51.030;4.686;2023-12-22T01:53:33;1.17;;;0.85;;
25123;SDS011;13104;51.030;4.686;2023-12-22T01:56:00;1.13;;;1.02;;
25123;SDS011;13104;51.030;4.686;2023-12-22T01:58:27;3.88;;;0.95;;
25123;SDS011;13104;51.030;4.686;2023-12-22T02:00:54;5.13;;;1.13;;
25123;SDS011;13104;51.030;4.686;2023-12-22T02:03:21;1.17;;;1.08;;
25123;SDS011;13104;51.030;4.686;2023-12-22T02:05:47;15.13;;;1.05;;
25123;SDS011;13104;51.030;4.686;2023-12-22T02:08:13;9.57;;;1.00;;
25123;SDS011;13104;51.030;4.686;2023-12-22T02:10:40;13.82;;;1.30;;
25123;SDS011;13104;51.030;4.686;2023-12-22T02:13:07;19.55;;;1.30;;
25123;SDS011;13104;51.030;4.686;2023-12-22T02:15:34;1.15;;;1.05;;
25123;SDS011;13104;51.030;4.686;2023-12-22T02:18:20;1.17;;;0.98;;
25123;SDS011;13104;51.030;4.686;2023-12-22T02:20:47;1.00;;;1.00;;
25123;SDS011;13104;51.030;4.686;2023-12-22T02:23:14;0.95;;;0.82;;
25123;SDS011;13104;51.030;4.686;2023-12-22T02:25:40;2.17;;;1.55;;
25123;SDS011;13104;51.030;4.686;2023-12-22T02:28:09;0.65;;;0.63;;
25123;SDS011;13104;51.030;4.686;2023-12-22T02:30:49;3.03;;;1.05;;
25123;SDS011;13104;51.030;4.686;2023-12-22T02:33:17;2.47;;;1.15;;
25123;SDS011;13104;51.030;4.686;2023-12-22T02:35:44;1.20;;;0.80;;
25123;SDS011;13104;51.030;4.686;2023-12-22T02:38:11;1.10;;;1.00;;
25123;SDS011;13104;51.030;4.686;2023-12-22T02:40:38;4.65;;;1.60;;
25123;SDS011;13104;51.030;4.686;2023-12-22T02:43:04;1.00;;;0.93;;
25123;SDS011;13104;51.030;4.686;2023-12-22T02:45:31;5.22;;;1.00;;
25123;SDS011;13104;51.030;4.686;2023-12-22T02:47:57;1.45;;;0.98;;
25123;SDS011;13104;51.030;4.686;2023-12-22T02:50:23;3.70;;;1.15;;
25123;SDS011;13104;51.030;4.686;2023-12-22T02:52:49;1.33;;;1.23;;
25123;SDS011;13104;51.030;4.686;2023-12-22T02:55:15;1.00;;;1.00;;
25123;SDS011;13104;51.030;4.686;2023-12-22T02:57:41;1.00;;;1.00;;
25123;SDS011;13104;51.030;4.686;2023-12-22T03:00:08;1.10;;;1.02;;
25123;SDS011;13104;51.030;4.686;2023-12-22T03:02:34;1.10;;;1.10;;
25123;SDS011;13104;51.030;4.686;2023-12-22T03:05:00;2.10;;;0.80;;
25123;SDS011;13104;51.030;4.686;2023-12-22T03:07:26;2.15;;;1.30;;
25123;SDS011;13104;51.030;4.686;2023-12-22T03:09:52;1.08;;;1.02;;
25123;SDS011;13104;51.030;4.686;2023-12-22T03:12:18;1.00;;;0.90;;
25123;SDS011;13104;51.030;4.686;2023-12-22T03:14:44;1.17;;;1.00;;
25123;SDS011;13104;51.030;4.686;2023-12-22T03:17:10;1.63;;;1.20;;
25123;SDS011;13104;51.030;4.686;2023-12-22T03:19:36;14.13;;;1.30;;
25123;SDS011;13104;51.030;4.686;2023-12-22T03:22:02;3.80;;;1.25;;
25123;SDS011;13104;51.030;4.686;2023-12-22T03:24:28;2.55;;;1.10;;
25123;SDS011;13104;51.030;4.686;2023-12-22T03:26:54;2.03;;;0.90;;
25123;SDS011;13104;51.030;4.686;2023-12-22T03:29:21;2.47;;;0.80;;
25123;SDS011;13104;51.030;4.686;2023-12-22T03:31:47;8.68;;;0.93;;
25123;SDS011;13104;51.030;4.686;2023-12-22T03:34:13;3.38;;;1.10;;
25123;SDS011;13104;51.030;4.686;2023-12-22T03:36:39;5.40;;;0.85;;
25123;SDS011;13104;51.030;4.686;2023-12-22T03:39:05;0.82;;;0.82;;
25123;SDS011;13104;51.030;4.686;2023-12-22T03:41:31;1.25;;;1.10;;
25123;SDS011;13104;51.030;4.686;2023-12-22T03:43:57;2.58;;;1.30;;
25123;SDS011;13104;51.030;4.686;2023-12-22T03:46:23;2.38;;;1.10;;
25123;SDS011;13104;51.030;4.686;2023-12-22T03:48:53;9.93;;;1.30;;
25123;SDS011;13104;51.030;4.686;2023-12-22T03:51:19;8.88;;;1.40;;
25123;SDS011;13104;51.030;4.686;2023-12-22T03:53:45;1.40;;;1.20;;
25123;SDS011;13104;51.030;4.686;2023-12-22T03:56:11;2.05;;;1.25;;
25123;SDS011;13104;51.030;4.686;2023-12-22T03:58:37;3.80;;;1.60;;
25123;SDS011;13104;51.030;4.686;2023-12-22T04:01:03;2.28;;;0.95;;
25123;SDS011;13104;51.030;4.686;2023-12-22T04:03:32;1.58;;;0.95;;
25123;SDS011;13104;51.030;4.686;2023-12-22T04:06:00;1.33;;;1.05;;
25123;SDS011;13104;51.030;4.686;2023-12-22T04:08:27;1.45;;;1.30;;
25123;SDS011;13104;51.030;4.686;2023-12-22T04:10:53;1.58;;;1.15;;
25123;SDS011;13104;51.030;4.686;2023-12-22T04:13:19;1.83;;;1.45;;
25123;SDS011;13104;51.030;4.686;2023-12-22T04:15:45;1.48;;;1.08;;
25123;SDS011;13104;51.030;4.686;2023-12-22T04:18:11;1.67;;;1.52;;
25123;SDS011;13104;51.030;4.686;2023-12-22T04:20:37;1.38;;;1.15;;
25123;SDS011;13104;51.030;4.686;2023-12-22T04:23:03;3.60;;;1.15;;
25123;SDS011;13104;51.030;4.686;2023-12-22T04:25:30;3.22;;;1.50;;
25123;SDS011;13104;51.030;4.686;2023-12-22T04:27:55;1.70;;;1.35;;
25123;SDS011;13104;51.030;4.686;2023-12-22T04:30:22;1.65;;;1.02;;
25123;SDS011;13104;51.030;4.686;2023-12-22T04:32:48;6.93;;;1.23;;
25123;SDS011;13104;51.030;4.686;2023-12-22T04:35:14;1.60;;;0.93;;
25123;SDS011;13104;51.030;4.686;2023-12-22T04:37:40;1.15;;;1.02;;
25123;SDS011;13104;51.030;4.686;2023-12-22T04:40:06;1.50;;;1.17;;
25123;SDS011;13104;51.030;4.686;2023-12-22T04:42:32;7.28;;;1.88;;
25123;SDS011;13104;51.030;4.686;2023-12-22T04:44:58;1.95;;;1.33;;
25123;SDS011;13104;51.030;4.686;2023-12-22T04:47:24;4.97;;;0.77;;
25123;SDS011;13104;51.030;4.686;2023-12-22T04:49:50;3.92;;;1.10;;
25123;SDS011;13104;51.030;4.686;2023-12-22T04:52:16;2.20;;;1.20;;
25123;SDS011;13104;51.030;4.686;2023-12-22T04:54:42;1.80;;;1.10;;
25123;SDS011;13104;51.030;4.686;2023-12-22T04:57:08;5.35;;;1.15;;
25123;SDS011;13104;51.030;4.686;2023-12-22T04:59:34;8.38;;;1.27;;
25123;SDS011;13104;51.030;4.686;2023-12-22T05:02:00;4.95;;;1.05;;
25123;SDS011;13104;51.030;4.686;2023-12-22T05:04:26;12.20;;;1.65;;
25123;SDS011;13104;51.030;4.686;2023-12-22T05:06:53;1.67;;;1.38;;
25123;SDS011;13104;51.030;4.686;2023-12-22T05:09:19;4.00;;;1.00;;
25123;SDS011;13104;51.030;4.686;2023-12-22T05:11:45;3.50;;;1.00;;
25123;SDS011;13104;51.030;4.686;2023-12-22T05:14:11;4.72;;;1.17;;
25123;SDS011;13104;51.030;4.686;2023-12-22T05:16:37;7.55;;;2.00;;
25123;SDS011;13104;51.030;4.686;2023-12-22T05:19:03;11.63;;;1.48;;
25123;SDS011;13104;51.030;4.686;2023-12-22T05:21:29;1.80;;;1.13;;
25123;SDS011;13104;51.030;4.686;2023-12-22T05:23:55;12.27;;;1.40;;
25123;SDS011;13104;51.030;4.686;2023-12-22T05:26:21;3.85;;;1.30;;
25123;SDS011;13104;51.030;4.686;2023-12-22T05:28:48;7.35;;;1.70;;
25123;SDS011;13104;51.030;4.686;2023-12-22T05:31:15;9.32;;;0.90;;
25123;SDS011;13104;51.030;4.686;2023-12-22T05:33:41;2.90;;;1.17;;
25123;SDS011;13104;51.030;4.686;2023-12-22T05:36:08;1.48;;;0.98;;
25123;SDS011;13104;51.030;4.686;2023-12-22T05:38:37;2.08;;;1.38;;
25123;SDS011;13104;51.030;4.686;2023-12-22T05:41:03;2.95;;;1.02;;
25123;SDS011;13104;51.030;4.686;2023-12-22T05:43:31;1.30;;;0.93;;
25123;SDS011;13104;51.030;4.686;2023-12-22T05:45:58;5.47;;;1.23;;
25123;SDS011;13104;51.030;4.686;2023-12-22T05:48:25;7.55;;;1.00;;
25123;SDS011;13104;51.030;4.686;2023-12-22T05:50:51;3.53;;;1.00;;
25123;SDS011;13104;51.030;4.686;2023-12-22T05:53:17;17.27;;;1.27;;
25123;SDS011;13104;51.030;4.686;2023-12-22T05:55:43;8.38;;;1.40;;
25123;SDS011;13104;51.030;4.686;2023-12-22T05:58:09;3.53;;;0.80;;
25123;SDS011;13104;51.030;4.686;2023-12-22T06:00:35;1.95;;;1.30;;
25123;SDS011;13104;51.030;4.686;2023-12-22T06:03:01;3.42;;;1.48;;
25123;SDS011;13104;51.030;4.686;2023-12-22T06:05:27;11.30;;;1.70;;
25123;SDS011;13104;51.030;4.686;2023-12-22T06:07:53;1.15;;;1.05;;
25123;SDS011;13104;51.030;4.686;2023-12-22T06:10:19;11.90;;;1.85;;
25123;SDS011;13104;51.030;4.686;2023-12-22T06:12:45;1.25;;;1.10;;
25123;SDS011;13104;51.030;4.686;2023-12-22T06:15:11;3.55;;;1.25;;
25123;SDS011;13104;51.030;4.686;2023-12-22T06:17:37;7.32;;;1.33;;
25123;SDS011;13104;51.030;4.686;2023-12-22T06:20:03;4.40;;;1.15;;
25123;SDS011;13104;51.030;4.686;2023-12-22T06:22:29;12.20;;;1.52;;
25123;SDS011;13104;51.030;4.686;2023-12-22T06:24:55;6.85;;;1.20;;
25123;SDS011;13104;51.030;4.686;2023-12-22T06:27:21;1.27;;;1.05;;
25123;SDS011;13104;51.030;4.686;2023-12-22T06:29:47;1.60;;;1.13;;
25123;SDS011;13104;51.030;4.686;2023-12-22T06:32:13;1.63;;;1.15;;
25123;SDS011;13104;51.030;4.686;2023-12-22T06:34:40;3.20;;;1.73;;
25123;SDS011;13104;51.030;4.686;2023-12-22T06:37:06;1.05;;;0.60;;
25123;SDS011;13104;51.030;4.686;2023-12-22T06:39:33;4.05;;;1.08;;
25123;SDS011;13104;51.030;4.686;2023-12-22T06:41:59;3.08;;;1.27;;
25123;SDS011;13104;51.030;4.686;2023-12-22T06:44:25;1.20;;;1.10;;
25123;SDS011;13104;51.030;4.686;2023-12-22T06:46:51;2.97;;;1.52;;
25123;SDS011;13104;51.030;4.686;2023-12-22T06:49:17;4.65;;;1.27;;
25123;SDS011;13104;51.030;4.686;2023-12-22T06:51:43;10.20;;;1.70;;
25123;SDS011;13104;51.030;4.686;2023-12-22T06:54:09;3.72;;;1.70;;
25123;SDS011;13104;51.030;4.686;2023-12-22T06:56:35;1.17;;;1.08;;
25123;SDS011;13104;51.030;4.686;2023-12-22T06:59:03;4.40;;;1.63;;
25123;SDS011;13104;51.030;4.686;2023-12-22T07:01:33;5.40;;;1.20;;
25123;SDS011;13104;51.030;4.686;2023-12-22T07:03:59;1.75;;;1.25;;
25123;SDS011;13104;51.030;4.686;2023-12-22T07:06:26;5.82;;;1.65;;
25123;SDS011;13104;51.030;4.686;2023-12-22T07:09:41;1.25;;;0.80;;
25123;SDS011;13104;51.030;4.686;2023-12-22T07:11:49;1.35;;;1.02;;
25123;SDS011;13104;51.030;4.686;2023-12-22T07:14:15;2.03;;;1.00;;
25123;SDS011;13104;51.030;4.686;2023-12-22T07:16:41;1.10;;;1.00;;
25123;SDS011;13104;51.030;4.686;2023-12-22T07:19:07;1.88;;;1.45;;
25123;SDS011;13104;51.030;4.686;2023-12-22T07:21:34;1.23;;;1.00;;
25123;SDS011;13104;51.030;4.686;2023-12-22T07:24:00;5.07;;;1.20;;
25123;SDS011;13104;51.030;4.686;2023-12-22T07:26:26;1.27;;;0.85;;
25123;SDS011;13104;51.030;4.686;2023-12-22T07:28:52;2.42;;;1.25;;
25123;SDS011;13104;51.030;4.686;2023-12-22T07:31:19;3.30;;;1.15;;
25123;SDS011;13104;51.030;4.686;2023-12-22T07:33:45;1.65;;;0.93;;
25123;SDS011;13104;51.030;4.686;2023-12-22T07:36:11;2.65;;;0.88;;
25123;SDS011;13104;51.030;4.686;2023-12-22T07:38:37;9.23;;;1.30;;
25123;SDS011;13104;51.030;4.686;2023-12-22T07:41:06;1.85;;;1.35;;
25123;SDS011;13104;51.030;4.686;2023-12-22T07:43:33;17.08;;;2.17;;
25123;SDS011;13104;51.030;4.686;2023-12-22T07:45:59;11.82;;;3.35;;
25123;SDS011;13104;51.030;4.686;2023-12-22T07:48:25;4.13;;;3.92;;
25123;SDS011;13104;51.030;4.686;2023-12-22T07:50:51;3.40;;;3.22;;
25123;SDS011;13104;51.030;4.686;2023-12-22T07:53:17;6.70;;;3.28;;
25123;SDS011;13104;51.030;4.686;2023-12-22T07:55:43;3.47;;;3.28;;
25123;SDS011;13104;51.030;4.686;2023-12-22T07:58:09;2.45;;;2.35;;
25123;SDS011;13104;51.030;4.686;2023-12-22T08:00:36;3.15;;;2.85;;
25123;SDS011;13104;51.030;4.686;2023-12-22T08:03:02;7.13;;;2.33;;
25123;SDS011;13104;51.030;4.686;2023-12-22T08:05:28;10.00;;;2.75;;
25123;SDS011;13104;51.030;4.686;2023-12-22T08:07:58;2.33;;;2.20;;
25123;SDS011;13104;51.030;4.686;2023-12-22T08:10:24;3.25;;;2.40;;
25123;SDS011;13104;51.030;4.686;2023-12-22T08:12:52;4.28;;;2.92;;
25123;SDS011;13104;51.030;4.686;2023-12-22T08:15:18;3.92;;;3.08;;
25123;SDS011;13104;51.030;4.686;2023-12-22T08:17:48;10.95;;;3.20;;
25123;SDS011;13104;51.030;4.686;2023-12-22T08:20:17;2.97;;;2.75;;
25123;SDS011;13104;51.030;4.686;2023-12-22T08:22:44;2.92;;;2.72;;
25123;SDS011;13104;51.030;4.686;2023-12-22T08:25:10;2.72;;;2.35;;
25123;SDS011;13104;51.030;4.686;2023-12-22T08:27:36;6.65;;;2.80;;
25123;SDS011;13104;51.030;4.686;2023-12-22T08:30:02;1.80;;;1.70;;
25123;SDS011;13104;51.030;4.686;2023-12-22T08:32:29;2.08;;;1.98;;
25123;SDS011;13104;51.030;4.686;2023-12-22T08:34:55;2.05;;;1.75;;
25123;SDS011;13104;51.030;4.686;2023-12-22T08:37:21;3.17;;;1.85;;
25123;SDS011;13104;51.030;4.686;2023-12-22T08:39:47;1.40;;;1.30;;
25123;SDS011;13104;51.030;4.686;2023-12-22T08:42:13;2.72;;;1.58;;
25123;SDS011;13104;51.030;4.686;2023-12-22T08:44:39;3.17;;;1.48;;
25123;SDS011;13104;51.030;4.686;2023-12-22T08:47:06;1.88;;;1.23;;
25123;SDS011;13104;51.030;4.686;2023-12-22T08:49:32;1.45;;;1.33;;
25123;SDS011;13104;51.030;4.686;2023-12-22T08:51:58;1.83;;;1.52;;
25123;SDS011;13104;51.030;4.686;2023-12-22T08:54:24;1.10;;;1.00;;
25123;SDS011;13104;51.030;4.686;2023-12-22T08:56:51;4.57;;;1.20;;
25123;SDS011;13104;51.030;4.686;2023-12-22T08:59:17;7.72;;;1.48;;
25123;SDS011;13104;51.030;4.686;2023-12-22T09:01:44;3.13;;;1.65;;
25123;SDS011;13104;51.030;4.686;2023-12-22T09:04:11;0.88;;;0.85;;
25123;SDS011;13104;51.030;4.686;2023-12-22T09:06:37;2.45;;;1.50;;
25123;SDS011;13104;51.030;4.686;2023-12-22T09:09:03;2.78;;;1.52;;
25123;SDS011;13104;51.030;4.686;2023-12-22T09:11:29;1.70;;;1.60;;
25123;SDS011;13104;51.030;4.686;2023-12-22T09:13:55;1.80;;;1.67;;
25123;SDS011;13104;51.030;4.686;2023-12-22T09:16:22;2.10;;;1.73;;
25123;SDS011;13104;51.030;4.686;2023-12-22T09:18:48;1.63;;;1.52;;
25123;SDS011;13104;51.030;4.686;2023-12-22T09:21:15;1.92;;;1.83;;
25123;SDS011;13104;51.030;4.686;2023-12-22T09:23:43;4.22;;;2.45;;
25123;SDS011;13104;51.030;4.686;2023-12-22T09:26:10;2.30;;;2.10;;
25123;SDS011;13104;51.030;4.686;2023-12-22T09:28:36;2.97;;;2.40;;
25123;SDS011;13104;51.030;4.686;2023-12-22T09:31:03;4.55;;;2.08;;
25123;SDS011;13104;51.030;4.686;2023-12-22T09:33:30;2.03;;;1.92;;
25123;SDS011;13104;51.030;4.686;2023-12-22T09:35:56;2.53;;;2.33;;
25123;SDS011;13104;51.030;4.686;2023-12-22T09:38:22;2.58;;;2.38;;
25123;SDS011;13104;51.030;4.686;2023-12-22T09:40:51;3.35;;;2.10;;
25123;SDS011;13104;51.030;4.686;2023-12-22T09:43:18;2.13;;;1.95;;
25123;SDS011;13104;51.030;4.686;2023-12-22T09:45:51;2.35;;;2.25;;
25123;SDS011;13104;51.030;4.686;2023-12-22T09:48:18;2.40;;;2.30;;
25123;SDS011;13104;51.030;4.686;2023-12-22T09:50:46;2.25;;;2.15;;
25123;SDS011;13104;51.030;4.686;2023-12-22T09:53:13;1.88;;;1.77;;
25123;SDS011;13104;51.030;4.686;2023-12-22T09:55:42;2.22;;;2.13;;
25123;SDS011;13104;51.030;4.686;2023-12-22T09:58:11;7.82;;;2.60;;
25123;SDS011;13104;51.030;4.686;2023-12-22T10:00:37;2.58;;;2.47;;
25123;SDS011;13104;51.030;4.686;2023-12-22T10:03:07;2.25;;;2.15;;
25123;SDS011;13104;51.030;4.686;2023-12-22T10:05:33;16.88;;;2.42;;
25123;SDS011;13104;51.030;4.686;2023-12-22T10:08:00;2.35;;;2.22;;
25123;SDS011;13104;51.030;4.686;2023-12-22T10:10:29;2.90;;;2.65;;
25123;SDS011;13104;51.030;4.686;2023-12-22T10:12:56;2.85;;;2.75;;
25123;SDS011;13104;51.030;4.686;2023-12-22T10:15:23;3.38;;;3.17;;
25123;SDS011;13104;51.030;4.686;2023-12-22T10:17:52;2.92;;;2.80;;
25123;SDS011;13104;51.030;4.686;2023-12-22T10:20:19;8.48;;;3.00;;
25123;SDS011;13104;51.030;4.686;2023-12-22T10:22:45;2.90;;;2.70;;
25123;SDS011;13104;51.030;4.686;2023-12-22T10:25:20;2.85;;;2.70;;
25123;SDS011;13104;51.030;4.686;2023-12-22T10:27:47;3.28;;;3.08;;
25123;SDS011;13104;51.030;4.686;2023-12-22T10:30:14;4.30;;;3.58;;
25123;SDS011;13104;51.030;4.686;2023-12-22T10:32:40;4.10;;;3.80;;
25123;SDS011;13104;51.030;4.686;2023-12-22T10:35:09;2.78;;;2.67;;
25123;SDS011;13104;51.030;4.686;2023-12-22T10:37:36;4.18;;;3.97;;
25123;SDS011;13104;51.030;4.686;2023-12-22T10:40:07;2.80;;;2.70;;
25123;SDS011;13104;51.030;4.686;2023-12-22T10:42:34;3.35;;;3.15;;
25123;SDS011;13104;51.030;4.686;2023-12-22T10:45:01;3.17;;;2.95;;
25123;SDS011;13104;51.030;4.686;2023-12-22T10:47:30;2.50;;;2.35;;
25123;SDS011;13104;51.030;4.686;2023-12-22T10:49:56;1.73;;;1.63;;
25123;SDS011;13104;51.030;4.686;2023-12-22T10:52:22;2.38;;;2.28;;
25123;SDS011;13104;51.030;4.686;2023-12-22T10:54:49;2.05;;;1.95;;
25123;SDS011;13104;51.030;4.686;2023-12-22T10:57:18;1.58;;;1.48;;
25123;SDS011;13104;51.030;4.686;2023-12-22T10:59:45;2.00;;;1.90;;
25123;SDS011;13104;51.030;4.686;2023-12-22T11:02:18;1.35;;;1.33;;
25123;SDS011;13104;51.030;4.686;2023-12-22T11:05:06;1.33;;;1.10;;
25123;SDS011;13104;51.030;4.686;2023-12-22T11:07:32;1.02;;;1.02;;
25123;SDS011;13104;51.030;4.686;2023-12-22T11:10:03;4.95;;;1.00;;
25123;SDS011;13104;51.030;4.686;2023-12-22T11:12:31;0.90;;;0.90;;
25123;SDS011;13104;51.030;4.686;2023-12-22T11:14:57;1.02;;;1.02;;
25123;SDS011;13104;51.030;4.686;2023-12-22T11:17:24;1.10;;;1.02;;
25123;SDS011;13104;51.030;4.686;2023-12-22T11:19:53;0.95;;;0.95;;
25123;SDS011;13104;51.030;4.686;2023-12-22T11:22:20;1.65;;;1.55;;
25123;SDS011;13104;51.030;4.686;2023-12-22T11:24:47;1.77;;;1.27;;
25123;SDS011;13104;51.030;4.686;2023-12-22T11:27:16;1.63;;;1.52;;
25123;SDS011;13104;51.030;4.686;2023-12-22T11:29:44;1.20;;;1.10;;
25123;SDS011;13104;51.030;4.686;2023-12-22T11:32:11;1.70;;;1.60;;
25123;SDS011;13104;51.030;4.686;2023-12-22T11:34:41;1.52;;;1.42;;
25123;SDS011;13104;51.030;4.686;2023-12-22T11:37:08;1.20;;;1.20;;
25123;SDS011;13104;51.030;4.686;2023-12-22T11:39:35;1.80;;;1.25;;
25123;SDS011;13104;51.030;4.686;2023-12-22T11:42:01;1.42;;;1.33;;
25123;SDS011;13104;51.030;4.686;2023-12-22T11:44:28;1.60;;;1.50;;
25123;SDS011;13104;51.030;4.686;2023-12-22T11:47:04;2.90;;;1.55;;
25123;SDS011;13104;51.030;4.686;2023-12-22T11:49:31;1.55;;;1.45;;
25123;SDS011;13104;51.030;4.686;2023-12-22T11:51:59;1.95;;;1.85;;
25123;SDS011;13104;51.030;4.686;2023-12-22T11:59:56;1.00;;;1.00;;
25123;SDS011;13104;51.030;4.686;2023-12-22T12:02:22;1.25;;;1.25;;
25123;SDS011;13104;51.030;4.686;2023-12-22T12:04:50;0.90;;;0.90;;
25123;SDS011;13104;51.030;4.686;2023-12-22T12:10:04;2.25;;;1.15;;
25123;SDS011;13104;51.030;4.686;2023-12-22T12:12:30;1.23;;;1.23;;
25123;SDS011;13104;51.030;4.686;2023-12-22T12:14:59;1.60;;;1.50;;
25123;SDS011;13104;51.030;4.686;2023-12-22T12:17:27;1.10;;;1.10;;
25123;SDS011;13104;51.030;4.686;2023-12-22T12:19:54;1.60;;;1.50;;
25123;SDS011;13104;51.030;4.686;2023-12-22T12:22:21;1.23;;;1.15;;
25123;SDS011;13104;51.030;4.686;2023-12-22T12:24:50;1.63;;;1.25;;
25123;SDS011;13104;51.030;4.686;2023-12-22T12:27:19;1.05;;;1.05;;
25123;SDS011;13104;51.030;4.686;2023-12-22T12:29:45;1.52;;;1.42;;
25123;SDS011;13104;51.030;4.686;2023-12-22T12:32:13;1.50;;;1.40;;
25123;SDS011;13104;51.030;4.686;2023-12-22T12:34:42;1.23;;;1.23;;
25123;SDS011;13104;51.030;4.686;2023-12-22T12:37:09;1.50;;;1.42;;
25123;SDS011;13104;51.030;4.686;2023-12-22T12:39:35;1.80;;;1.70;;
25123;SDS011;13104;51.030;4.686;2023-12-22T12:42:02;3.03;;;1.85;;
25123;SDS011;13104;51.030;4.686;2023-12-22T12:44:32;2.08;;;1.70;;
25123;SDS011;13104;51.030;4.686;2023-12-22T12:46:59;1.80;;;1.70;;
25123;SDS011;13104;51.030;4.686;2023-12-22T12:49:25;2.25;;;2.15;;
25123;SDS011;13104;51.030;4.686;2023-12-22T12:51:54;2.28;;;2.17;;
25123;SDS011;13104;51.030;4.686;2023-12-22T12:54:20;4.05;;;2.40;;
25123;SDS011;13104;51.030;4.686;2023-12-22T12:56:47;2.72;;;2.53;;
25123;SDS011;13104;51.030;4.686;2023-12-22T12:59:16;2.30;;;2.20;;
25123;SDS011;13104;51.030;4.686;2023-12-22T13:01:44;2.15;;;2.05;;
25123;SDS011;13104;51.030;4.686;2023-12-22T13:04:10;4.28;;;2.15;;
25123;SDS011;13104;51.030;4.686;2023-12-22T13:06:47;1.85;;;1.75;;
25123;SDS011;13104;51.030;4.686;2023-12-22T13:09:14;2.20;;;2.10;;
25123;SDS011;13104;51.030;4.686;2023-12-22T13:11:40;3.53;;;1.75;;
25123;SDS011;13104;51.030;4.686;2023-12-22T13:14:11;3.35;;;1.55;;
25123;SDS011;13104;51.030;4.686;2023-12-22T13:16:38;1.52;;;1.48;;
25123;SDS011;13104;51.030;4.686;2023-12-22T13:19:05;3.33;;;1.63;;
25123;SDS011;13104;51.030;4.686;2023-12-22T13:21:31;1.30;;;1.30;;
25123;SDS011;13104;51.030;4.686;2023-12-22T13:24:14;1.33;;;1.30;;
25123;SDS011;13104;51.030;4.686;2023-12-22T13:26:44;1.20;;;1.20;;
25123;SDS011;13104;51.030;4.686;2023-12-22T13:29:11;0.95;;;0.95;;
25123;SDS011;13104;51.030;4.686;2023-12-22T13:31:38;6.38;;;1.10;;
25123;SDS011;13104;51.030;4.686;2023-12-22T13:34:08;0.75;;;0.75;;
25123;SDS011;13104;51.030;4.686;2023-12-22T13:36:34;1.40;;;0.68;;
25123;SDS011;13104;51.030;4.686;2023-12-22T13:39:06;0.95;;;0.80;;
25123;SDS011;13104;51.030;4.686;2023-12-22T13:41:33;0.52;;;0.52;;
25123;SDS011;13104;51.030;4.686;2023-12-22T13:44:04;6.45;;;0.90;;
25123;SDS011;13104;51.030;4.686;2023-12-22T13:46:30;0.50;;;0.50;;
25123;SDS011;13104;51.030;4.686;2023-12-22T13:48:57;0.70;;;0.70;;
25123;SDS011;13104;51.030;4.686;2023-12-22T13:51:23;1.35;;;0.80;;
25123;SDS011;13104;51.030;4.686;2023-12-22T13:53:49;0.55;;;0.55;;
25123;SDS011;13104;51.030;4.686;2023-12-22T13:56:16;2.67;;;0.93;;
25123;SDS011;13104;51.030;4.686;2023-12-22T13:58:45;2.45;;;0.80;;
25123;SDS011;13104;51.030;4.686;2023-12-22T14:01:15;0.70;;;0.60;;
25123;SDS011;13104;51.030;4.686;2023-12-22T14:03:42;0.90;;;0.90;;
25123;SDS011;13104;51.030;4.686;2023-12-22T14:06:08;0.70;;;0.70;;
25123;SDS011;13104;51.030;4.686;2023-12-22T14:08:35;0.65;;;0.65;;
25123;SDS011;13104;51.030;4.686;2023-12-22T14:11:01;0.90;;;0.80;;
25123;SDS011;13104;51.030;4.686;2023-12-22T14:13:27;0.90;;;0.90;;
25123;SDS011;13104;51.030;4.686;2023-12-22T14:15:53;0.57;;;0.57;;
25123;SDS011;13104;51.030;4.686;2023-12-22T14:18:19;1.23;;;1.23;;
25123;SDS011;13104;51.030;4.686;2023-12-22T14:20:45;1.63;;;1.40;;
25123;SDS011;13104;51.030;4.686;2023-12-22T14:23:11;1.98;;;1.88;;
25123;SDS011;13104;51.030;4.686;2023-12-22T14:25:41;1.75;;;1.65;;
25123;SDS011;13104;51.030;4.686;2023-12-22T14:28:08;2.53;;;2.30;;
25123;SDS011;13104;51.030;4.686;2023-12-22T14:30:35;2.08;;;1.88;;
25123;SDS011;13104;51.030;4.686;2023-12-22T14:33:01;2.22;;;1.65;;
25123;SDS011;13104;51.030;4.686;2023-12-22T14:35:28;1.20;;;1.20;;
25123;SDS011;13104;51.030;4.686;2023-12-22T14:37:57;1.45;;;1.42;;
25123;SDS011;13104;51.030;4.686;2023-12-22T14:40:23;1.35;;;1.23;;
25123;SDS011;13104;51.030;4.686;2023-12-22T14:42:50;1.48;;;1.38;;
25123;SDS011;13104;51.030;4.686;2023-12-22T14:45:16;1.65;;;1.30;;
25123;SDS011;13104;51.030;4.686;2023-12-22T14:47:42;1.23;;;1.13;;
25123;SDS011;13104;51.030;4.686;2023-12-22T14:50:08;1.30;;;1.20;;
25123;SDS011;13104;51.030;4.686;2023-12-22T14:52:34;0.80;;;0.80;;
25123;SDS011;13104;51.030;4.686;2023-12-22T14:55:01;0.88;;;0.88;;